sensor_id;sensor_type;location;lat;lon;timestamp;pressure;altitude;pressure_sealevel;temperature
64394;BMP280;50712;49.506;10.400;2023-12-07T00:00:01;98242.38;;;4.69
64394;BMP280;50712;49.506;10.400;2023-12-07T00:00:34;98231.59;;;4.69
64394;BMP280;50712;49.506;10.400;2023-12-07T00:01:05;98238.16;;;4.68
64394;BMP280;50712;49.506;10.400;2023-12-07T00:01:35;98231.22;;;4.67
64394;BMP280;50712;49.506;10.400;2023-12-07T00:02:07;98231.22;;;4.67
64394;BMP280;50712;49.506;10.400;2023-12-07T00:02:37;98238.53;;;4.67
64394;BMP280;50712;49.506;10.400;2023-12-07T00:03:08;98242.00;;;4.67
64394;BMP280;50712;49.506;10.400;2023-12-07T00:03:38;98235.84;;;4.67
64394;BMP280;50712;49.506;10.400;2023-12-07T00:04:08;98235.84;;;4.67
64394;BMP280;50712;49.506;10.400;2023-12-07T00:04:39;98239.69;;;4.66
64394;BMP280;50712;49.506;10.400;2023-12-07T00:05:09;98245.09;;;4.66
64394;BMP280;50712;49.506;10.400;2023-12-07T00:05:39;98237.00;;;4.66
64394;BMP280;50712;49.506;10.400;2023-12-07T00:06:10;98237.41;;;4.64
64394;BMP280;50712;49.506;10.400;2023-12-07T00:06:40;98232.78;;;4.65
64394;BMP280;50712;49.506;10.400;2023-12-07T00:07:10;98235.47;;;4.65
64394;BMP280;50712;49.506;10.400;2023-12-07T00:07:41;98241.66;;;4.65
64394;BMP280;50712;49.506;10.400;2023-12-07T00:08:11;98235.47;;;4.65
64394;BMP280;50712;49.506;10.400;2023-12-07T00:08:41;98242.78;;;4.64
64394;BMP280;50712;49.506;10.400;2023-12-07T00:09:12;98242.78;;;4.64
64394;BMP280;50712;49.506;10.400;2023-12-07T00:09:42;98239.31;;;4.64
64394;BMP280;50712;49.506;10.400;2023-12-07T00:10:12;98239.31;;;4.64
64394;BMP280;50712;49.506;10.400;2023-12-07T00:10:43;98247.41;;;4.64
64394;BMP280;50712;49.506;10.400;2023-12-07T00:11:13;98241.25;;;4.63
64394;BMP280;50712;49.506;10.400;2023-12-07T00:11:44;98245.88;;;4.63
64394;BMP280;50712;49.506;10.400;2023-12-07T00:12:14;98250.13;;;4.64
64394;BMP280;50712;49.506;10.400;2023-12-07T00:12:44;98235.84;;;4.63
64394;BMP280;50712;49.506;10.400;2023-12-07T00:13:15;98249.34;;;4.63
64394;BMP280;50712;49.506;10.400;2023-12-07T00:13:45;98242.03;;;4.64
64394;BMP280;50712;49.506;10.400;2023-12-07T00:14:15;98243.94;;;4.63
64394;BMP280;50712;49.506;10.400;2023-12-07T00:14:46;98248.19;;;4.64
64394;BMP280;50712;49.506;10.400;2023-12-07T00:15:16;98247.41;;;4.64
64394;BMP280;50712;49.506;10.400;2023-12-07T00:15:46;98249.75;;;4.65
64394;BMP280;50712;49.506;10.400;2023-12-07T00:16:17;98248.97;;;4.65
64394;BMP280;50712;49.506;10.400;2023-12-07T00:16:48;98247.78;;;4.66
64394;BMP280;50712;49.506;10.400;2023-12-07T00:17:19;98250.47;;;4.66
64394;BMP280;50712;49.506;10.400;2023-12-07T00:17:49;98247.03;;;4.65
64394;BMP280;50712;49.506;10.400;2023-12-07T00:18:19;98258.56;;;4.66
64394;BMP280;50712;49.506;10.400;2023-12-07T00:18:50;98253.19;;;4.66
64394;BMP280;50712;49.506;10.400;2023-12-07T00:19:20;98248.56;;;4.66
64394;BMP280;50712;49.506;10.400;2023-12-07T00:19:50;98257.84;;;4.65
64394;BMP280;50712;49.506;10.400;2023-12-07T00:20:23;98257.06;;;4.65
64394;BMP280;50712;49.506;10.400;2023-12-07T00:20:54;98255.13;;;4.65
64394;BMP280;50712;49.506;10.400;2023-12-07T00:21:24;98247.03;;;4.65
64394;BMP280;50712;49.506;10.400;2023-12-07T00:21:54;98248.19;;;4.64
64394;BMP280;50712;49.506;10.400;2023-12-07T00:22:25;98262.47;;;4.65
64394;BMP280;50712;49.506;10.400;2023-12-07T00:22:56;98250.88;;;4.64
64394;BMP280;50712;49.506;10.400;2023-12-07T00:23:27;98260.53;;;4.65
64394;BMP280;50712;49.506;10.400;2023-12-07T00:23:57;98255.13;;;4.65
64394;BMP280;50712;49.506;10.400;2023-12-07T00:24:27;98260.53;;;4.65
64394;BMP280;50712;49.506;10.400;2023-12-07T00:24:58;98257.06;;;4.65
64394;BMP280;50712;49.506;10.400;2023-12-07T00:25:29;98257.06;;;4.65
64394;BMP280;50712;49.506;10.400;2023-12-07T00:25:59;98260.53;;;4.65
64394;BMP280;50712;49.506;10.400;2023-12-07T00:26:29;98259.75;;;4.65
64394;BMP280;50712;49.506;10.400;2023-12-07T00:27:00;98263.22;;;4.65
64394;BMP280;50712;49.506;10.400;2023-12-07T00:27:30;98257.06;;;4.65
64394;BMP280;50712;49.506;10.400;2023-12-07T00:28:00;98260.53;;;4.65
64394;BMP280;50712;49.506;10.400;2023-12-07T00:28:31;98266.69;;;4.66
64394;BMP280;50712;49.506;10.400;2023-12-07T00:29:01;98262.06;;;4.66
64394;BMP280;50712;49.506;10.400;2023-12-07T00:29:32;98268.63;;;4.65
64394;BMP280;50712;49.506;10.400;2023-12-07T00:30:02;98263.97;;;4.66
64394;BMP280;50712;49.506;10.400;2023-12-07T00:30:33;98265.94;;;4.65
64394;BMP280;50712;49.506;10.400;2023-12-07T00:31:03;98264.75;;;4.66
64394;BMP280;50712;49.506;10.400;2023-12-07T00:31:34;98264.75;;;4.66
64394;BMP280;50712;49.506;10.400;2023-12-07T00:32:04;98262.06;;;4.66
64394;BMP280;50712;49.506;10.400;2023-12-07T00:32:35;98268.63;;;4.65
64394;BMP280;50712;49.506;10.400;2023-12-07T00:33:05;98268.63;;;4.65
64394;BMP280;50712;49.506;10.400;2023-12-07T00:33:36;98272.84;;;4.66
64394;BMP280;50712;49.506;10.400;2023-12-07T00:34:06;98270.94;;;4.67
64394;BMP280;50712;49.506;10.400;2023-12-07T00:34:36;98263.97;;;4.66
64394;BMP280;50712;49.506;10.400;2023-12-07T00:35:07;98277.47;;;4.66
64394;BMP280;50712;49.506;10.400;2023-12-07T00:35:38;98277.47;;;4.66
64394;BMP280;50712;49.506;10.400;2023-12-07T00:36:08;98267.44;;;4.66
64394;BMP280;50712;49.506;10.400;2023-12-07T00:36:38;98265.53;;;4.67
64394;BMP280;50712;49.506;10.400;2023-12-07T00:37:11;98270.94;;;4.67
64394;BMP280;50712;49.506;10.400;2023-12-07T00:37:42;98274.41;;;4.67
64394;BMP280;50712;49.506;10.400;2023-12-07T00:38:12;98267.44;;;4.66
64394;BMP280;50712;49.506;10.400;2023-12-07T00:38:42;98268.22;;;4.67
64394;BMP280;50712;49.506;10.400;2023-12-07T00:39:13;98272.47;;;4.68
64394;BMP280;50712;49.506;10.400;2023-12-07T00:39:43;98280.94;;;4.66
64394;BMP280;50712;49.506;10.400;2023-12-07T00:40:13;98283.25;;;4.68
64394;BMP280;50712;49.506;10.400;2023-12-07T00:40:44;98283.25;;;4.68
64394;BMP280;50712;49.506;10.400;2023-12-07T00:41:14;98274.41;;;4.67
64394;BMP280;50712;49.506;10.400;2023-12-07T00:41:44;98279.78;;;4.67
64394;BMP280;50712;49.506;10.400;2023-12-07T00:42:17;98282.09;;;4.69
64394;BMP280;50712;49.506;10.400;2023-12-07T00:42:47;98279.78;;;4.67
64394;BMP280;50712;49.506;10.400;2023-12-07T00:43:18;98280.56;;;4.68
64394;BMP280;50712;49.506;10.400;2023-12-07T00:43:48;98285.97;;;4.68
64394;BMP280;50712;49.506;10.400;2023-12-07T00:44:18;98276.72;;;4.69
64394;BMP280;50712;49.506;10.400;2023-12-07T00:44:49;98277.88;;;4.68
64394;BMP280;50712;49.506;10.400;2023-12-07T00:45:19;98285.19;;;4.67
64394;BMP280;50712;49.506;10.400;2023-12-07T00:45:50;98280.56;;;4.68
64394;BMP280;50712;49.506;10.400;2023-12-07T00:46:20;98279.03;;;4.67
64394;BMP280;50712;49.506;10.400;2023-12-07T00:46:50;98282.84;;;4.69
64394;BMP280;50712;49.506;10.400;2023-12-07T00:47:21;98273.25;;;4.68
64394;BMP280;50712;49.506;10.400;2023-12-07T00:47:51;98286.31;;;4.70
64394;BMP280;50712;49.506;10.400;2023-12-07T00:48:22;98280.56;;;4.68
64394;BMP280;50712;49.506;10.400;2023-12-07T00:48:52;98281.34;;;4.68
64394;BMP280;50712;49.506;10.400;2023-12-07T00:49:22;98279.78;;;4.67
64394;BMP280;50712;49.506;10.400;2023-12-07T00:49:53;98272.47;;;4.68
64394;BMP280;50712;49.506;10.400;2023-12-07T00:50:23;98277.09;;;4.67
64394;BMP280;50712;49.506;10.400;2023-12-07T00:50:53;98271.69;;;4.67
64394;BMP280;50712;49.506;10.400;2023-12-07T00:51:24;98280.56;;;4.68
64394;BMP280;50712;49.506;10.400;2023-12-07T00:51:55;98281.34;;;4.68
64394;BMP280;50712;49.506;10.400;2023-12-07T00:52:25;98282.09;;;4.69
64394;BMP280;50712;49.506;10.400;2023-12-07T00:52:56;98278.25;;;4.66
64394;BMP280;50712;49.506;10.400;2023-12-07T00:53:26;98273.25;;;4.68
64394;BMP280;50712;49.506;10.400;2023-12-07T00:53:57;98276.72;;;4.69
64394;BMP280;50712;49.506;10.400;2023-12-07T00:54:28;98273.25;;;4.68
64394;BMP280;50712;49.506;10.400;2023-12-07T00:54:58;98280.56;;;4.68
64394;BMP280;50712;49.506;10.400;2023-12-07T00:55:29;98282.84;;;4.69
64394;BMP280;50712;49.506;10.400;2023-12-07T00:55:59;98276.72;;;4.69
64394;BMP280;50712;49.506;10.400;2023-12-07T00:56:30;98281.34;;;4.68
64394;BMP280;50712;49.506;10.400;2023-12-07T00:57:00;98284.03;;;4.68
64394;BMP280;50712;49.506;10.400;2023-12-07T00:57:30;98277.88;;;4.68
64394;BMP280;50712;49.506;10.400;2023-12-07T00:58:01;98275.16;;;4.68
64394;BMP280;50712;49.506;10.400;2023-12-07T00:58:31;98274.75;;;4.69
64394;BMP280;50712;49.506;10.400;2023-12-07T00:59:02;98284.03;;;4.68
64394;BMP280;50712;49.506;10.400;2023-12-07T00:59:32;98282.09;;;4.69
64394;BMP280;50712;49.506;10.400;2023-12-07T01:00:06;98287.50;;;4.69
64394;BMP280;50712;49.506;10.400;2023-12-07T01:00:38;98284.81;;;4.69
64394;BMP280;50712;49.506;10.400;2023-12-07T01:01:09;98286.31;;;4.70
64394;BMP280;50712;49.506;10.400;2023-12-07T01:01:39;98284.81;;;4.69
64394;BMP280;50712;49.506;10.400;2023-12-07T01:02:10;98291.72;;;4.70
64394;BMP280;50712;49.506;10.400;2023-12-07T01:02:40;98289.81;;;4.70
64394;BMP280;50712;49.506;10.400;2023-12-07T01:03:10;98285.94;;;4.71
64394;BMP280;50712;49.506;10.400;2023-12-07T01:03:41;98289.03;;;4.70
64394;BMP280;50712;49.506;10.400;2023-12-07T01:04:11;98287.88;;;4.71
64394;BMP280;50712;49.506;10.400;2023-12-07T01:04:42;98292.09;;;4.72
64394;BMP280;50712;49.506;10.400;2023-12-07T01:05:12;98292.50;;;4.70
64394;BMP280;50712;49.506;10.400;2023-12-07T01:05:42;98289.03;;;4.70
64394;BMP280;50712;49.506;10.400;2023-12-07T01:06:13;98289.81;;;4.70
64394;BMP280;50712;49.506;10.400;2023-12-07T01:06:44;98292.50;;;4.70
64394;BMP280;50712;49.506;10.400;2023-12-07T01:07:14;98287.09;;;4.70
64394;BMP280;50712;49.506;10.400;2023-12-07T01:07:44;98293.28;;;4.71
64394;BMP280;50712;49.506;10.400;2023-12-07T01:08:15;98298.66;;;4.71
64394;BMP280;50712;49.506;10.400;2023-12-07T01:08:45;98295.97;;;4.71
64394;BMP280;50712;49.506;10.400;2023-12-07T01:09:15;98295.59;;;4.69
64394;BMP280;50712;49.506;10.400;2023-12-07T01:09:46;98297.91;;;4.70
64394;BMP280;50712;49.506;10.400;2023-12-07T01:10:16;98297.91;;;4.70
64394;BMP280;50712;49.506;10.400;2023-12-07T01:10:49;98299.44;;;4.71
64394;BMP280;50712;49.506;10.400;2023-12-07T01:11:19;98297.91;;;4.70
64394;BMP280;50712;49.506;10.400;2023-12-07T01:11:49;98297.50;;;4.72
64394;BMP280;50712;49.506;10.400;2023-12-07T01:12:20;98296.75;;;4.71
64394;BMP280;50712;49.506;10.400;2023-12-07T01:12:51;98296.75;;;4.71
64394;BMP280;50712;49.506;10.400;2023-12-07T01:13:21;98294.78;;;4.72
64394;BMP280;50712;49.506;10.400;2023-12-07T01:13:51;98305.59;;;4.72
64394;BMP280;50712;49.506;10.400;2023-12-07T01:14:22;98300.19;;;4.72
64394;BMP280;50712;49.506;10.400;2023-12-07T01:14:52;98303.63;;;4.72
64394;BMP280;50712;49.506;10.400;2023-12-07T01:15:23;98305.59;;;4.72
64394;BMP280;50712;49.506;10.400;2023-12-07T01:15:53;98304.41;;;4.73
64394;BMP280;50712;49.506;10.400;2023-12-07T01:16:24;98304.41;;;4.73
64394;BMP280;50712;49.506;10.400;2023-12-07T01:16:54;98301.72;;;4.73
64394;BMP280;50712;49.506;10.400;2023-12-07T01:17:25;98307.88;;;4.73
64394;BMP280;50712;49.506;10.400;2023-12-07T01:17:55;98309.81;;;4.73
64394;BMP280;50712;49.506;10.400;2023-12-07T01:18:25;98307.88;;;4.73
64394;BMP280;50712;49.506;10.400;2023-12-07T01:18:56;98314.06;;;4.74
64394;BMP280;50712;49.506;10.400;2023-12-07T01:19:28;98312.50;;;4.73
64394;BMP280;50712;49.506;10.400;2023-12-07T01:19:58;98310.56;;;4.73
64394;BMP280;50712;49.506;10.400;2023-12-07T01:20:28;98311.34;;;4.74
64394;BMP280;50712;49.506;10.400;2023-12-07T01:20:59;98311.34;;;4.74
64394;BMP280;50712;49.506;10.400;2023-12-07T01:21:29;98317.53;;;4.74
64394;BMP280;50712;49.506;10.400;2023-12-07T01:22:00;98316.75;;;4.74
64394;BMP280;50712;49.506;10.400;2023-12-07T01:22:30;98324.06;;;4.73
64394;BMP280;50712;49.506;10.400;2023-12-07T01:23:00;98316.75;;;4.74
64394;BMP280;50712;49.506;10.400;2023-12-07T01:23:31;98320.22;;;4.74
64394;BMP280;50712;49.506;10.400;2023-12-07T01:24:02;98317.53;;;4.74
64394;BMP280;50712;49.506;10.400;2023-12-07T01:24:32;98316.75;;;4.74
64394;BMP280;50712;49.506;10.400;2023-12-07T01:25:02;98321.38;;;4.73
64394;BMP280;50712;49.506;10.400;2023-12-07T01:25:33;98322.91;;;4.74
64394;BMP280;50712;49.506;10.400;2023-12-07T01:26:04;98317.53;;;4.74
64394;BMP280;50712;49.506;10.400;2023-12-07T01:26:34;98324.06;;;4.73
64394;BMP280;50712;49.506;10.400;2023-12-07T01:27:04;98326.38;;;4.75
64394;BMP280;50712;49.506;10.400;2023-12-07T01:27:35;98326.78;;;4.73
64394;BMP280;50712;49.506;10.400;2023-12-07T01:28:05;98328.31;;;4.74
64394;BMP280;50712;49.506;10.400;2023-12-07T01:28:35;98332.16;;;4.73
64394;BMP280;50712;49.506;10.400;2023-12-07T01:29:06;98328.31;;;4.74
64394;BMP280;50712;49.506;10.400;2023-12-07T01:29:36;98324.06;;;4.73
64394;BMP280;50712;49.506;10.400;2023-12-07T01:30:07;98328.69;;;4.73
64394;BMP280;50712;49.506;10.400;2023-12-07T01:30:38;98328.69;;;4.73
64394;BMP280;50712;49.506;10.400;2023-12-07T01:31:08;98326.78;;;4.73
64394;BMP280;50712;49.506;10.400;2023-12-07T01:31:38;98333.72;;;4.74
64394;BMP280;50712;49.506;10.400;2023-12-07T01:32:09;98334.88;;;4.73
64394;BMP280;50712;49.506;10.400;2023-12-07T01:32:40;98330.25;;;4.74
64394;BMP280;50712;49.506;10.400;2023-12-07T01:33:10;98334.09;;;4.73
64394;BMP280;50712;49.506;10.400;2023-12-07T01:33:40;98332.16;;;4.73
64394;BMP280;50712;49.506;10.400;2023-12-07T01:34:11;98337.56;;;4.73
64394;BMP280;50712;49.506;10.400;2023-12-07T01:34:41;98338.34;;;4.74
64394;BMP280;50712;49.506;10.400;2023-12-07T01:35:12;98332.94;;;4.74
64394;BMP280;50712;49.506;10.400;2023-12-07T01:35:42;98332.16;;;4.73
64394;BMP280;50712;49.506;10.400;2023-12-07T01:36:13;98336.78;;;4.73
64394;BMP280;50712;49.506;10.400;2023-12-07T01:36:43;98336.03;;;4.72
64394;BMP280;50712;49.506;10.400;2023-12-07T01:37:14;98335.28;;;4.72
64394;BMP280;50712;49.506;10.400;2023-12-07T01:37:44;98337.97;;;4.72
64394;BMP280;50712;49.506;10.400;2023-12-07T01:38:15;98337.97;;;4.72
64394;BMP280;50712;49.506;10.400;2023-12-07T01:38:45;98332.56;;;4.72
64394;BMP280;50712;49.506;10.400;2023-12-07T01:39:16;98337.22;;;4.71
64394;BMP280;50712;49.506;10.400;2023-12-07T01:39:46;98339.94;;;4.71
64394;BMP280;50712;49.506;10.400;2023-12-07T01:40:16;98331.84;;;4.71
64394;BMP280;50712;49.506;10.400;2023-12-07T01:40:47;98337.22;;;4.71
64394;BMP280;50712;49.506;10.400;2023-12-07T01:41:18;98328.34;;;4.71
64394;BMP280;50712;49.506;10.400;2023-12-07T01:41:49;98338.38;;;4.70
64394;BMP280;50712;49.506;10.400;2023-12-07T01:42:20;98337.59;;;4.70
64394;BMP280;50712;49.506;10.400;2023-12-07T01:42:53;98342.63;;;4.71
64394;BMP280;50712;49.506;10.400;2023-12-07T01:43:23;98336.44;;;4.71
64394;BMP280;50712;49.506;10.400;2023-12-07T01:43:54;98348.03;;;4.71
64394;BMP280;50712;49.506;10.400;2023-12-07T01:44:25;98339.16;;;4.71
64394;BMP280;50712;49.506;10.400;2023-12-07T01:44:57;98335.69;;;4.70
64394;BMP280;50712;49.506;10.400;2023-12-07T01:45:28;98338.38;;;4.70
64394;BMP280;50712;49.506;10.400;2023-12-07T01:45:58;98339.53;;;4.69
64394;BMP280;50712;49.506;10.400;2023-12-07T01:46:29;98342.22;;;4.69
64394;BMP280;50712;49.506;10.400;2023-12-07T01:47:00;98335.69;;;4.70
64394;BMP280;50712;49.506;10.400;2023-12-07T01:47:32;98342.22;;;4.69
64394;BMP280;50712;49.506;10.400;2023-12-07T01:48:05;98341.06;;;4.70
64394;BMP280;50712;49.506;10.400;2023-12-07T01:48:36;98348.41;;;4.70
64394;BMP280;50712;49.506;10.400;2023-12-07T01:49:06;98347.25;;;4.71
64394;BMP280;50712;49.506;10.400;2023-12-07T01:49:37;98343.00;;;4.70
64394;BMP280;50712;49.506;10.400;2023-12-07T01:50:09;98343.78;;;4.70
64394;BMP280;50712;49.506;10.400;2023-12-07T01:50:40;98343.00;;;4.70
64394;BMP280;50712;49.506;10.400;2023-12-07T01:51:11;98349.94;;;4.71
64394;BMP280;50712;49.506;10.400;2023-12-07T01:51:41;98345.69;;;4.70
64394;BMP280;50712;49.506;10.400;2023-12-07T01:52:12;98349.16;;;4.70
64394;BMP280;50712;49.506;10.400;2023-12-07T01:52:44;98342.22;;;4.69
64394;BMP280;50712;49.506;10.400;2023-12-07T01:53:15;98344.94;;;4.69
64394;BMP280;50712;49.506;10.400;2023-12-07T01:53:47;98347.63;;;4.69
64394;BMP280;50712;49.506;10.400;2023-12-07T01:54:18;98351.09;;;4.70
64394;BMP280;50712;49.506;10.400;2023-12-07T01:54:48;98343.78;;;4.70
64394;BMP280;50712;49.506;10.400;2023-12-07T01:55:19;98346.47;;;4.70
64394;BMP280;50712;49.506;10.400;2023-12-07T01:55:52;98349.16;;;4.70
64394;BMP280;50712;49.506;10.400;2023-12-07T01:56:23;98345.69;;;4.70
64394;BMP280;50712;49.506;10.400;2023-12-07T01:56:54;98347.25;;;4.71
64394;BMP280;50712;49.506;10.400;2023-12-07T01:57:26;98347.25;;;4.71
64394;BMP280;50712;49.506;10.400;2023-12-07T01:57:57;98341.84;;;4.71
64394;BMP280;50712;49.506;10.400;2023-12-07T01:58:27;98349.94;;;4.71
64394;BMP280;50712;49.506;10.400;2023-12-07T01:58:58;98343.78;;;4.70
64394;BMP280;50712;49.506;10.400;2023-12-07T01:59:28;98343.38;;;4.72
64394;BMP280;50712;49.506;10.400;2023-12-07T01:59:59;98338.72;;;4.72
64394;BMP280;50712;49.506;10.400;2023-12-07T02:00:29;98348.03;;;4.71
64394;BMP280;50712;49.506;10.400;2023-12-07T02:01:00;98342.63;;;4.71
64394;BMP280;50712;49.506;10.400;2023-12-07T02:01:30;98348.03;;;4.71
64394;BMP280;50712;49.506;10.400;2023-12-07T02:02:01;98346.06;;;4.72
64394;BMP280;50712;49.506;10.400;2023-12-07T02:02:31;98338.72;;;4.72
64394;BMP280;50712;49.506;10.400;2023-12-07T02:03:04;98344.13;;;4.72
64394;BMP280;50712;49.506;10.400;2023-12-07T02:03:35;98339.50;;;4.73
64394;BMP280;50712;49.506;10.400;2023-12-07T02:04:06;98350.28;;;4.73
64394;BMP280;50712;49.506;10.400;2023-12-07T02:04:37;98344.13;;;4.72
64394;BMP280;50712;49.506;10.400;2023-12-07T02:05:07;98344.13;;;4.72
64394;BMP280;50712;49.506;10.400;2023-12-07T02:05:39;98344.88;;;4.73
64394;BMP280;50712;49.506;10.400;2023-12-07T02:06:12;98351.06;;;4.73
64394;BMP280;50712;49.506;10.400;2023-12-07T02:06:44;98339.50;;;4.73
64394;BMP280;50712;49.506;10.400;2023-12-07T02:07:14;98341.03;;;4.74
64394;BMP280;50712;49.506;10.400;2023-12-07T02:07:45;98346.44;;;4.74
64394;BMP280;50712;49.506;10.400;2023-12-07T02:08:16;98345.66;;;4.73
64394;BMP280;50712;49.506;10.400;2023-12-07T02:08:46;98345.66;;;4.73
64394;BMP280;50712;49.506;10.400;2023-12-07T02:09:16;98346.44;;;4.74
64394;BMP280;50712;49.506;10.400;2023-12-07T02:09:47;98346.44;;;4.74
64394;BMP280;50712;49.506;10.400;2023-12-07T02:10:18;98349.91;;;4.74
64394;BMP280;50712;49.506;10.400;2023-12-07T02:10:49;98341.81;;;4.74
64394;BMP280;50712;49.506;10.400;2023-12-07T02:11:19;98344.50;;;4.74
64394;BMP280;50712;49.506;10.400;2023-12-07T02:11:49;98348.72;;;4.75
64394;BMP280;50712;49.506;10.400;2023-12-07T02:12:20;98344.09;;;4.76
64394;BMP280;50712;49.506;10.400;2023-12-07T02:12:51;98343.34;;;4.75
64394;BMP280;50712;49.506;10.400;2023-12-07T02:13:23;98346.03;;;4.75
64394;BMP280;50712;49.506;10.400;2023-12-07T02:13:53;98344.88;;;4.76
64394;BMP280;50712;49.506;10.400;2023-12-07T02:14:27;98345.66;;;4.77
64394;BMP280;50712;49.506;10.400;2023-12-07T02:14:58;98341.03;;;4.77
64394;BMP280;50712;49.506;10.400;2023-12-07T02:15:29;98344.50;;;4.78
64394;BMP280;50712;49.506;10.400;2023-12-07T02:16:00;98346.44;;;4.77
64394;BMP280;50712;49.506;10.400;2023-12-07T02:17:16;98347.19;;;4.78
64394;BMP280;50712;49.506;10.400;2023-12-07T02:18:58;98349.50;;;4.79
64394;BMP280;50712;49.506;10.400;2023-12-07T02:20:39;98346.03;;;4.79
64394;BMP280;50712;49.506;10.400;2023-12-07T02:21:16;98352.97;;;4.80
64394;BMP280;50712;49.506;10.400;2023-12-07T02:21:58;98352.19;;;4.79
64394;BMP280;50712;49.506;10.400;2023-12-07T02:22:37;98344.88;;;4.80
64394;BMP280;50712;49.506;10.400;2023-12-07T02:23:12;98349.13;;;4.81
64394;BMP280;50712;49.506;10.400;2023-12-07T02:23:44;98349.91;;;4.81
64394;BMP280;50712;49.506;10.400;2023-12-07T02:24:20;98346.41;;;4.81
64394;BMP280;50712;49.506;10.400;2023-12-07T02:25:03;98346.41;;;4.81
64394;BMP280;50712;49.506;10.400;2023-12-07T02:25:53;98348.72;;;4.82
64394;BMP280;50712;49.506;10.400;2023-12-07T02:26:30;98352.59;;;4.81
64394;BMP280;50712;49.506;10.400;2023-12-07T02:27:04;98346.78;;;4.83
64394;BMP280;50712;49.506;10.400;2023-12-07T02:27:38;98347.94;;;4.82
64394;BMP280;50712;49.506;10.400;2023-12-07T02:28:08;98350.63;;;4.82
64394;BMP280;50712;49.506;10.400;2023-12-07T02:28:39;98346.78;;;4.83
64394;BMP280;50712;49.506;10.400;2023-12-07T02:29:09;98347.56;;;4.83
64394;BMP280;50712;49.506;10.400;2023-12-07T02:29:39;98346.00;;;4.82
64394;BMP280;50712;49.506;10.400;2023-12-07T02:30:10;98347.56;;;4.83
64394;BMP280;50712;49.506;10.400;2023-12-07T02:30:41;98347.56;;;4.83
64394;BMP280;50712;49.506;10.400;2023-12-07T02:31:11;98344.88;;;4.83
64394;BMP280;50712;49.506;10.400;2023-12-07T02:31:42;98350.25;;;4.83
64394;BMP280;50712;49.506;10.400;2023-12-07T02:32:12;98345.63;;;4.84
64394;BMP280;50712;49.506;10.400;2023-12-07T02:32:44;98351.81;;;4.84
64394;BMP280;50712;49.506;10.400;2023-12-07T02:33:15;98346.41;;;4.84
64394;BMP280;50712;49.506;10.400;2023-12-07T02:33:45;98342.94;;;4.84
64394;BMP280;50712;49.506;10.400;2023-12-07T02:34:17;98346.41;;;4.84
64394;BMP280;50712;49.506;10.400;2023-12-07T02:34:47;98350.63;;;4.85
64394;BMP280;50712;49.506;10.400;2023-12-07T02:35:17;98352.56;;;4.85
64394;BMP280;50712;49.506;10.400;2023-12-07T02:35:48;98351.81;;;4.84
64394;BMP280;50712;49.506;10.400;2023-12-07T02:36:19;98347.94;;;4.85
64394;BMP280;50712;49.506;10.400;2023-12-07T02:36:52;98348.69;;;4.86
64394;BMP280;50712;49.506;10.400;2023-12-07T02:37:27;98356.03;;;4.85
64394;BMP280;50712;49.506;10.400;2023-12-07T02:37:58;98349.84;;;4.85
64394;BMP280;50712;49.506;10.400;2023-12-07T02:38:30;98344.47;;;4.85
64394;BMP280;50712;49.506;10.400;2023-12-07T02:39:02;98347.94;;;4.85
64394;BMP280;50712;49.506;10.400;2023-12-07T02:39:33;98347.94;;;4.85
64394;BMP280;50712;49.506;10.400;2023-12-07T02:40:05;98344.47;;;4.85
64394;BMP280;50712;49.506;10.400;2023-12-07T02:40:40;98349.09;;;4.84
64394;BMP280;50712;49.506;10.400;2023-12-07T02:41:12;98344.47;;;4.85
64394;BMP280;50712;49.506;10.400;2023-12-07T02:41:43;98347.94;;;4.85
64394;BMP280;50712;49.506;10.400;2023-12-07T02:42:16;98347.16;;;4.85
64394;BMP280;50712;49.506;10.400;2023-12-07T02:42:46;98342.53;;;4.85
64394;BMP280;50712;49.506;10.400;2023-12-07T02:43:18;98345.22;;;4.85
64394;BMP280;50712;49.506;10.400;2023-12-07T02:43:49;98347.16;;;4.85
64394;BMP280;50712;49.506;10.400;2023-12-07T02:44:20;98350.63;;;4.85
64394;BMP280;50712;49.506;10.400;2023-12-07T02:44:51;98346.00;;;4.86
64394;BMP280;50712;49.506;10.400;2023-12-07T02:45:23;98347.94;;;4.85
64394;BMP280;50712;49.506;10.400;2023-12-07T02:45:53;98345.22;;;4.85
64394;BMP280;50712;49.506;10.400;2023-12-07T02:46:24;98351.41;;;4.86
64394;BMP280;50712;49.506;10.400;2023-12-07T02:46:55;98346.78;;;4.86
64394;BMP280;50712;49.506;10.400;2023-12-07T02:47:26;98352.19;;;4.86
64394;BMP280;50712;49.506;10.400;2023-12-07T02:47:57;98351.41;;;4.86
64394;BMP280;50712;49.506;10.400;2023-12-07T02:48:28;98348.69;;;4.86
64394;BMP280;50712;49.506;10.400;2023-12-07T02:48:59;98354.09;;;4.86
64394;BMP280;50712;49.506;10.400;2023-12-07T02:49:30;98346.00;;;4.86
64394;BMP280;50712;49.506;10.400;2023-12-07T02:50:00;98352.19;;;4.86
64394;BMP280;50712;49.506;10.400;2023-12-07T02:50:30;98356.81;;;4.86
64394;BMP280;50712;49.506;10.400;2023-12-07T02:51:00;98343.31;;;4.86
64394;BMP280;50712;49.506;10.400;2023-12-07T02:51:31;98352.94;;;4.87
64394;BMP280;50712;49.506;10.400;2023-12-07T02:52:01;98354.88;;;4.86
64394;BMP280;50712;49.506;10.400;2023-12-07T02:52:32;98351.41;;;4.86
64394;BMP280;50712;49.506;10.400;2023-12-07T02:53:03;98353.31;;;4.85
64394;BMP280;50712;49.506;10.400;2023-12-07T02:53:33;98351.41;;;4.86
64394;BMP280;50712;49.506;10.400;2023-12-07T02:54:04;98350.63;;;4.85
64394;BMP280;50712;49.506;10.400;2023-12-07T02:54:34;98351.81;;;4.84
64394;BMP280;50712;49.506;10.400;2023-12-07T02:55:04;98349.84;;;4.85
64394;BMP280;50712;49.506;10.400;2023-12-07T02:55:35;98354.50;;;4.84
64394;BMP280;50712;49.506;10.400;2023-12-07T02:56:06;98354.50;;;4.84
64394;BMP280;50712;49.506;10.400;2023-12-07T02:56:37;98355.25;;;4.85
64394;BMP280;50712;49.506;10.400;2023-12-07T02:57:07;98356.44;;;4.84
64394;BMP280;50712;49.506;10.400;2023-12-07T02:57:37;98362.59;;;4.84
64394;BMP280;50712;49.506;10.400;2023-12-07T02:58:07;98354.50;;;4.84
64394;BMP280;50712;49.506;10.400;2023-12-07T02:58:38;98358.34;;;4.83
64394;BMP280;50712;49.506;10.400;2023-12-07T02:59:08;98358.34;;;4.83
64394;BMP280;50712;49.506;10.400;2023-12-07T02:59:39;98361.06;;;4.83
64394;BMP280;50712;49.506;10.400;2023-12-07T03:00:09;98362.59;;;4.84
64394;BMP280;50712;49.506;10.400;2023-12-07T03:00:42;98365.31;;;4.84
64394;BMP280;50712;49.506;10.400;2023-12-07T03:01:12;98367.22;;;4.84